createdAt,value
2017-01-18T00:00:39.187Z,0
2017-01-18T00:01:19.651Z,0
2017-01-18T00:02:00.181Z,0
2017-01-18T00:02:40.683Z,0
2017-01-18T00:03:21.177Z,0
2017-01-18T00:04:01.675Z,0
2017-01-18T00:04:42.180Z,0
2017-01-18T00:05:22.704Z,0
2017-01-18T00:06:03.219Z,0
2017-01-18T00:06:43.727Z,0
2017-01-18T00:07:24.232Z,0
2017-01-18T00:08:04.694Z,0
2017-01-18T00:08:45.205Z,0
2017-01-18T00:09:25.705Z,0
2017-01-18T00:10:06.205Z,0
2017-01-18T00:10:46.704Z,0
2017-01-18T00:11:27.209Z,0
2017-01-18T00:12:07.725Z,0
2017-01-18T00:12:48.187Z,0
2017-01-18T00:13:28.704Z,0
2017-01-18T00:14:09.205Z,0
2017-01-18T00:14:49.727Z,0
2017-01-18T00:15:30.224Z,0
2017-01-18T00:16:10.710Z,0
2017-01-18T00:16:51.205Z,0
2017-01-18T00:17:31.711Z,0
2017-01-18T00:18:12.209Z,0
2017-01-18T00:18:52.736Z,0
2017-01-18T00:19:33.194Z,0
2017-01-18T00:20:13.696Z,0
2017-01-18T00:20:54.205Z,0
2017-01-18T00:21:34.716Z,0
2017-01-18T00:22:15.210Z,0
2017-01-18T00:22:55.740Z,0
2017-01-18T00:23:36.246Z,0
2017-01-18T00:24:16.692Z,0
2017-01-18T00:24:57.199Z,0
2017-01-18T00:25:37.691Z,0
2017-01-18T00:26:18.257Z,0
2017-01-18T00:26:58.774Z,0
2017-01-18T00:27:39.265Z,0
2017-01-18T00:28:19.726Z,0
2017-01-18T00:29:00.226Z,0
2017-01-18T00:29:40.692Z,0
2017-01-18T00:30:21.210Z,0
2017-01-18T00:31:01.730Z,0
2017-01-18T00:31:42.208Z,0
2017-01-18T00:32:22.692Z,0
2017-01-18T00:33:03.147Z,0
2017-01-18T00:33:43.623Z,0
2017-01-18T00:34:24.127Z,0
2017-01-18T00:35:04.574Z,0
2017-01-18T00:35:45.054Z,0
2017-01-18T00:36:25.539Z,0
2017-01-18T00:37:06.032Z,0
2017-01-18T00:37:46.524Z,0
2017-01-18T00:38:27.035Z,0
2017-01-18T00:39:07.532Z,0
2017-01-18T00:39:48.022Z,0
2017-01-18T00:40:28.551Z,0
2017-01-18T00:41:09.052Z,0
2017-01-18T00:41:49.564Z,0
2017-01-18T00:42:30.049Z,0
2017-01-18T00:43:10.534Z,0
2017-01-18T00:43:51.036Z,0
2017-01-18T00:44:31.575Z,0
2017-01-18T00:45:12.070Z,0
2017-01-18T00:45:52.524Z,0
2017-01-18T00:46:33.032Z,0
2017-01-18T00:47:13.575Z,0
2017-01-18T00:47:54.076Z,0
2017-01-18T00:48:34.584Z,0
2017-01-18T00:49:15.101Z,0
2017-01-18T00:49:55.598Z,0
2017-01-18T00:50:36.141Z,0
2017-01-18T00:51:16.659Z,0
2017-01-18T00:51:57.142Z,0
2017-01-18T00:52:37.677Z,0
2017-01-18T00:53:18.162Z,0
2017-01-18T00:53:58.674Z,0
2017-01-18T00:54:39.157Z,0
2017-01-18T00:55:19.673Z,0
2017-01-18T00:56:00.165Z,0
2017-01-18T00:56:40.660Z,0
2017-01-18T00:57:21.171Z,0
2017-01-18T00:58:01.677Z,0
2017-01-18T00:58:42.159Z,0
2017-01-18T00:59:22.661Z,0
2017-01-18T01:00:03.154Z,0
2017-01-18T01:00:43.646Z,0
2017-01-18T01:01:24.170Z,0
2017-01-18T01:02:04.675Z,0
2017-01-18T01:02:45.174Z,0
2017-01-18T01:03:25.664Z,0
2017-01-18T01:04:06.173Z,0
2017-01-18T01:04:46.640Z,0
2017-01-18T01:05:27.146Z,0
2017-01-18T01:06:07.623Z,0
2017-01-18T01:06:48.139Z,0
2017-01-18T01:07:28.621Z,0
2017-01-18T01:08:09.132Z,0
2017-01-18T01:08:49.624Z,0
2017-01-18T01:09:30.138Z,0
2017-01-18T01:10:10.647Z,0
2017-01-18T01:10:51.148Z,0
2017-01-18T01:11:31.642Z,0
2017-01-18T01:12:12.145Z,0
2017-01-18T01:12:52.692Z,0
2017-01-18T01:13:33.200Z,0
2017-01-18T01:14:13.681Z,0
2017-01-18T01:14:54.179Z,0
2017-01-18T01:15:34.847Z,0
2017-01-18T01:16:15.358Z,0
2017-01-18T01:16:55.840Z,0
2017-01-18T01:17:36.322Z,0
2017-01-18T01:18:16.794Z,0
2017-01-18T01:18:57.307Z,0
2017-01-18T01:19:37.794Z,0
2017-01-18T01:20:18.285Z,0
2017-01-18T01:20:58.785Z,0
2017-01-18T01:21:39.280Z,0
2017-01-18T01:22:19.815Z,0
2017-01-18T01:23:00.328Z,0
2017-01-18T01:23:40.848Z,0
2017-01-18T01:24:21.378Z,0
2017-01-18T01:25:01.882Z,0
2017-01-18T01:25:42.398Z,0
2017-01-18T01:26:22.903Z,0
2017-01-18T01:27:03.415Z,0
2017-01-18T01:27:43.927Z,0
2017-01-18T01:28:24.426Z,0
2017-01-18T01:29:04.916Z,0
2017-01-18T01:29:45.410Z,0
2017-01-18T01:30:25.930Z,0
2017-01-18T01:31:06.418Z,0
2017-01-18T01:31:46.929Z,0
2017-01-18T01:32:27.424Z,0
2017-01-18T01:33:07.907Z,0
2017-01-18T01:33:48.400Z,0
2017-01-18T01:34:28.919Z,0
2017-01-18T01:35:09.411Z,0
2017-01-18T01:35:49.890Z,0
2017-01-18T01:36:30.367Z,0
2017-01-18T01:37:10.865Z,0
2017-01-18T01:37:51.364Z,0
2017-01-18T01:38:31.853Z,0
2017-01-18T01:39:12.364Z,0
2017-01-18T01:39:52.866Z,0
2017-01-18T01:40:33.405Z,0
2017-01-18T01:41:13.873Z,0
2017-01-18T01:41:54.381Z,0
2017-01-18T01:42:34.878Z,0
2017-01-18T01:43:15.370Z,0
2017-01-18T01:43:55.856Z,0
2017-01-18T01:46:09.116Z,0
2017-01-18T01:46:49.626Z,0
2017-01-18T01:47:30.115Z,0
2017-01-18T01:48:10.619Z,0
2017-01-18T01:48:51.160Z,0
2017-01-18T01:49:31.654Z,0
2017-01-18T01:50:12.117Z,0
2017-01-18T01:50:52.614Z,0
2017-01-18T01:51:33.114Z,0
2017-01-18T01:52:13.594Z,0
2017-01-18T01:52:54.064Z,0
2017-01-18T01:53:34.628Z,0
2017-01-18T01:54:15.061Z,0
2017-01-18T01:54:55.544Z,0
2017-01-18T01:55:35.993Z,0
2017-01-18T01:56:16.474Z,0
2017-01-18T01:56:56.990Z,0
2017-01-18T01:59:35.677Z,0
2017-01-18T02:00:16.177Z,0
2017-01-18T02:00:56.720Z,0
2017-01-18T02:01:37.166Z,0
2017-01-18T02:02:17.653Z,0
2017-01-18T02:02:58.160Z,0
2017-01-18T02:03:38.665Z,0
2017-01-18T02:04:19.180Z,0
2017-01-18T02:04:59.678Z,0
2017-01-18T02:05:40.203Z,0
2017-01-18T02:06:20.700Z,0
2017-01-18T02:07:01.169Z,0
2017-01-18T02:07:41.629Z,0
2017-01-18T02:08:22.195Z,0
2017-01-18T02:09:02.698Z,0
2017-01-18T02:09:43.166Z,0
2017-01-18T02:10:23.625Z,0
2017-01-18T02:11:04.189Z,0
2017-01-18T02:11:44.768Z,0
2017-01-18T02:12:25.286Z,0
2017-01-18T02:13:05.773Z,0
2017-01-18T02:13:46.256Z,0
2017-01-18T02:14:26.740Z,0
2017-01-18T02:15:07.208Z,0
2017-01-18T02:15:47.710Z,0
2017-01-18T02:16:28.179Z,0
2017-01-18T02:17:08.668Z,0
2017-01-18T02:17:49.195Z,0
2017-01-18T02:18:29.699Z,0
2017-01-18T02:19:10.230Z,0
2017-01-18T02:19:50.771Z,0
2017-01-18T02:20:31.251Z,0
2017-01-18T02:21:11.692Z,0
2017-01-18T02:21:52.200Z,0
2017-01-18T02:22:32.687Z,0
2017-01-18T02:23:13.179Z,0
2017-01-18T02:23:53.627Z,0
2017-01-18T02:24:34.129Z,0
2017-01-18T02:25:14.627Z,0
2017-01-18T02:25:55.124Z,0
2017-01-18T02:26:35.620Z,0
2017-01-18T02:27:16.142Z,0
2017-01-18T02:27:56.674Z,0
2017-01-18T02:28:37.110Z,0
2017-01-18T02:29:17.739Z,0
2017-01-18T02:29:58.229Z,0
2017-01-18T02:30:38.705Z,0
2017-01-18T02:31:19.208Z,0
2017-01-18T02:31:59.726Z,0
2017-01-18T02:32:40.311Z,0
2017-01-18T02:33:20.787Z,0
2017-01-18T02:34:01.293Z,0
2017-01-18T02:34:41.862Z,0
2017-01-18T02:35:22.332Z,0
2017-01-18T02:36:02.856Z,0
2017-01-18T02:36:43.337Z,0
2017-01-18T02:37:23.782Z,0
2017-01-18T02:38:04.314Z,0
2017-01-18T02:38:44.763Z,0
2017-01-18T02:39:25.341Z,0
2017-01-18T02:40:05.803Z,0
2017-01-18T02:40:46.324Z,0
2017-01-18T02:41:26.825Z,0
2017-01-18T02:42:07.255Z,0
2017-01-18T02:42:47.750Z,0
2017-01-18T02:43:28.240Z,0
2017-01-18T02:44:08.746Z,0
2017-01-18T02:44:49.230Z,0
2017-01-18T02:45:29.713Z,0
2017-01-18T02:46:10.209Z,0
2017-01-18T02:46:50.739Z,0
2017-01-18T02:47:31.241Z,0
2017-01-18T02:48:11.735Z,0
2017-01-18T02:48:52.221Z,0
2017-01-18T02:49:32.718Z,0
2017-01-18T02:50:13.244Z,0
2017-01-18T02:50:53.764Z,0
2017-01-18T02:51:34.262Z,0
2017-01-18T02:52:14.766Z,0
2017-01-18T02:52:55.207Z,0
2017-01-18T02:53:35.742Z,0
2017-01-18T02:54:16.272Z,0
2017-01-18T02:54:56.708Z,0
2017-01-18T02:55:37.231Z,0
2017-01-18T02:56:17.730Z,0
2017-01-18T02:56:58.245Z,0
2017-01-18T02:57:38.746Z,0
2017-01-18T02:58:19.248Z,0
2017-01-18T02:58:59.725Z,0
2017-01-18T02:59:40.215Z,0
2017-01-18T03:00:20.687Z,0
2017-01-18T03:01:01.183Z,0
2017-01-18T03:01:41.671Z,0
2017-01-18T03:02:22.190Z,0
2017-01-18T03:03:02.673Z,0
2017-01-18T03:03:43.180Z,0
2017-01-18T03:04:23.698Z,0
2017-01-18T03:05:04.202Z,0
2017-01-18T03:05:44.664Z,0
2017-01-18T03:06:25.115Z,0
2017-01-18T03:07:05.631Z,0
2017-01-18T03:07:46.149Z,0
2017-01-18T03:08:26.626Z,0
2017-01-18T03:09:07.116Z,0
2017-01-18T03:09:47.607Z,0
2017-01-18T03:10:28.135Z,0
2017-01-18T03:11:08.632Z,0
2017-01-18T03:11:49.165Z,0
2017-01-18T03:12:29.632Z,0
2017-01-18T03:13:10.137Z,0
2017-01-18T03:13:50.615Z,0
2017-01-18T03:14:31.118Z,0
2017-01-18T03:15:11.578Z,0
2017-01-18T03:15:52.051Z,0
2017-01-18T03:16:32.545Z,0
2017-01-18T03:17:13.051Z,0
2017-01-18T03:17:53.533Z,0
2017-01-18T03:18:34.013Z,0
2017-01-18T03:19:14.523Z,0
2017-01-18T03:19:55.029Z,0
2017-01-18T03:20:35.522Z,0
2017-01-18T03:21:16.036Z,0
2017-01-18T03:21:56.545Z,0
2017-01-18T03:22:37.067Z,0
2017-01-18T03:23:17.525Z,0
2017-01-18T03:23:58.041Z,0
2017-01-18T03:24:38.512Z,0
2017-01-18T03:25:19.033Z,0
2017-01-18T03:25:59.538Z,0
2017-01-18T03:26:40.034Z,0
2017-01-18T03:27:20.541Z,0
2017-01-18T03:28:01.005Z,0
2017-01-18T03:28:41.494Z,0
2017-01-18T03:29:22.014Z,0
2017-01-18T03:30:02.495Z,0
2017-01-18T03:30:43.002Z,0
2017-01-18T03:31:23.466Z,0
2017-01-18T03:32:04.003Z,0
2017-01-18T03:32:44.506Z,0
2017-01-18T03:33:24.998Z,0
2017-01-18T03:34:05.497Z,0
2017-01-18T03:34:46.002Z,0
2017-01-18T03:35:26.532Z,0
2017-01-18T03:36:07.043Z,0
2017-01-18T03:36:47.558Z,0
2017-01-18T03:37:28.069Z,0
2017-01-18T03:38:08.518Z,0
2017-01-18T03:38:49.016Z,0
2017-01-18T03:39:29.501Z,0
2017-01-18T03:40:09.997Z,0
2017-01-18T03:40:50.484Z,0
2017-01-18T03:41:31.037Z,0
2017-01-18T03:42:11.533Z,0
2017-01-18T03:42:52.005Z,0
2017-01-18T03:43:32.509Z,0
2017-01-18T03:44:12.985Z,0
2017-01-18T03:44:53.507Z,0
2017-01-18T03:45:33.985Z,0
2017-01-18T03:46:14.470Z,0
2017-01-18T03:46:54.972Z,0
2017-01-18T03:47:35.464Z,0
2017-01-18T03:48:15.954Z,0
2017-01-18T03:48:56.489Z,0
2017-01-18T03:49:36.979Z,0
2017-01-18T03:50:17.504Z,0
2017-01-18T03:50:58.035Z,0
2017-01-18T03:51:38.530Z,0
2017-01-18T03:52:19.030Z,0
2017-01-18T03:52:59.528Z,0
2017-01-18T03:53:39.993Z,0
2017-01-18T03:54:20.489Z,0
2017-01-18T03:55:00.994Z,0
2017-01-18T03:55:41.470Z,0
2017-01-18T03:56:22.085Z,0
2017-01-18T03:57:02.584Z,0
2017-01-18T03:57:43.041Z,0
2017-01-18T03:58:23.566Z,0
2017-01-18T03:59:04.078Z,0
2017-01-18T03:59:44.575Z,0
2017-01-18T04:00:25.084Z,0
2017-01-18T04:01:05.575Z,0
2017-01-18T04:01:46.079Z,0
2017-01-18T04:02:26.771Z,0
2017-01-18T04:03:07.306Z,0
2017-01-18T04:03:47.752Z,0
2017-01-18T04:04:28.257Z,0
2017-01-18T04:05:08.734Z,0
2017-01-18T04:05:49.243Z,0
2017-01-18T04:06:29.734Z,0
2017-01-18T04:07:10.215Z,0
2017-01-18T04:07:50.716Z,0
2017-01-18T04:08:31.208Z,0
2017-01-18T04:09:11.705Z,0
2017-01-18T04:09:52.198Z,0
2017-01-18T04:10:32.692Z,0
2017-01-18T04:11:13.196Z,0
2017-01-18T04:11:53.709Z,0
2017-01-18T04:12:34.185Z,0
2017-01-18T04:13:14.686Z,0
2017-01-18T04:13:55.182Z,0
2017-01-18T04:14:35.681Z,0
2017-01-18T04:15:16.185Z,0
2017-01-18T04:15:56.683Z,0
2017-01-18T04:16:37.214Z,0
2017-01-18T04:17:17.712Z,0
2017-01-18T04:17:58.239Z,0
2017-01-18T04:18:38.728Z,0
2017-01-18T04:19:19.213Z,0
2017-01-18T04:19:59.707Z,0
2017-01-18T04:20:40.232Z,0
2017-01-18T04:21:20.697Z,0
2017-01-18T04:22:01.200Z,0
2017-01-18T04:22:41.709Z,0
2017-01-18T04:23:22.188Z,0
2017-01-18T04:24:02.677Z,0
2017-01-18T04:24:43.172Z,0
2017-01-18T04:25:23.677Z,0
2017-01-18T04:26:04.180Z,0
2017-01-18T04:26:44.692Z,0
2017-01-18T04:27:25.242Z,0
2017-01-18T04:28:05.695Z,0
2017-01-18T04:28:46.195Z,0
2017-01-18T04:29:26.706Z,0
2017-01-18T04:30:07.190Z,0
2017-01-18T04:30:47.681Z,0
2017-01-18T04:31:28.147Z,0
2017-01-18T04:32:08.628Z,0
2017-01-18T04:32:49.106Z,0
2017-01-18T04:33:29.607Z,0
2017-01-18T04:34:10.129Z,0
2017-01-18T04:34:50.588Z,0
2017-01-18T04:35:31.076Z,0
2017-01-18T04:36:11.567Z,0
2017-01-18T04:36:52.057Z,0
2017-01-18T04:37:32.578Z,0
2017-01-18T04:38:13.063Z,0
2017-01-18T04:38:53.564Z,0
2017-01-18T04:39:34.055Z,0
2017-01-18T04:40:14.575Z,0
2017-01-18T04:40:55.052Z,0
2017-01-18T04:41:35.551Z,0
2017-01-18T04:42:16.047Z,0
2017-01-18T04:42:56.567Z,0
2017-01-18T04:43:37.080Z,0
2017-01-18T04:44:17.564Z,0
2017-01-18T04:44:58.062Z,0
2017-01-18T04:45:38.538Z,0
2017-01-18T04:46:19.058Z,0
2017-01-18T04:46:59.531Z,0
2017-01-18T04:47:40.021Z,0
2017-01-18T04:48:20.516Z,0
2017-01-18T04:49:01.040Z,0
2017-01-18T04:49:41.565Z,0
2017-01-18T04:50:22.064Z,0
2017-01-18T04:51:02.562Z,0
2017-01-18T04:51:43.083Z,0
2017-01-18T04:52:23.563Z,0
2017-01-18T04:53:04.069Z,0
2017-01-18T04:53:44.564Z,0
2017-01-18T04:54:25.087Z,0
2017-01-18T04:55:05.571Z,0
2017-01-18T04:55:46.085Z,0
2017-01-18T04:56:26.583Z,0
2017-01-18T04:57:07.088Z,0
2017-01-18T04:57:47.587Z,0
2017-01-18T04:58:28.088Z,0
2017-01-18T04:59:08.600Z,0
2017-01-18T04:59:49.096Z,0
2017-01-18T05:00:29.605Z,0
2017-01-18T05:01:10.107Z,0
2017-01-18T05:01:50.600Z,0
2017-01-18T05:02:31.064Z,0
2017-01-18T05:03:11.574Z,0
2017-01-18T05:03:52.065Z,0
2017-01-18T05:04:32.566Z,0
2017-01-18T05:05:13.047Z,0
2017-01-18T05:05:53.565Z,0
2017-01-18T05:06:34.036Z,0
2017-01-18T05:07:14.533Z,0
2017-01-18T05:07:55.028Z,0
2017-01-18T05:08:35.499Z,0
2017-01-18T05:09:15.994Z,0
2017-01-18T05:09:56.494Z,0
2017-01-18T05:10:36.990Z,0
2017-01-18T05:11:17.547Z,0
2017-01-18T05:11:58.024Z,0
2017-01-18T05:12:38.492Z,0
2017-01-18T05:13:18.985Z,0
2017-01-18T05:13:59.462Z,0
2017-01-18T05:14:39.945Z,0
2017-01-18T05:15:20.459Z,0
2017-01-18T05:16:00.943Z,0
2017-01-18T05:16:41.443Z,0
2017-01-18T05:17:21.940Z,0
2017-01-18T05:18:02.441Z,0
2017-01-18T05:18:42.922Z,0
2017-01-18T05:19:23.430Z,0
2017-01-18T05:20:03.932Z,0
2017-01-18T05:20:44.436Z,0
2017-01-18T05:21:24.928Z,0
2017-01-18T05:22:05.426Z,0
2017-01-18T05:22:45.921Z,0
2017-01-18T05:23:26.441Z,0
2017-01-18T05:24:06.941Z,0
2017-01-18T05:24:47.397Z,0
2017-01-18T05:25:27.889Z,0
2017-01-18T05:26:08.393Z,0
2017-01-18T05:26:48.922Z,0
2017-01-18T05:27:29.403Z,0
2017-01-18T05:28:09.910Z,0
2017-01-18T05:28:50.368Z,0
2017-01-18T05:29:30.891Z,0
2017-01-18T05:30:11.375Z,0
2017-01-18T05:30:51.878Z,0
2017-01-18T05:31:32.380Z,0
2017-01-18T05:32:12.846Z,0
2017-01-18T05:32:53.342Z,0
2017-01-18T05:33:33.820Z,0
2017-01-18T05:34:14.350Z,0
2017-01-18T05:34:54.837Z,0
2017-01-18T05:35:35.344Z,0
2017-01-18T05:36:15.836Z,0
2017-01-18T05:36:56.332Z,0
2017-01-18T05:37:36.811Z,0
2017-01-18T05:38:17.300Z,0
2017-01-18T05:38:57.807Z,0
2017-01-18T05:39:38.343Z,0
2017-01-18T05:40:18.824Z,0
2017-01-18T05:40:59.323Z,0
2017-01-18T05:41:39.812Z,0
2017-01-18T05:42:20.307Z,0
2017-01-18T05:43:00.788Z,0
2017-01-18T05:43:41.292Z,0
2017-01-18T05:44:21.826Z,0
2017-01-18T05:45:02.316Z,0
2017-01-18T05:45:42.806Z,0
2017-01-18T05:46:23.283Z,0
2017-01-18T05:47:03.782Z,0
2017-01-18T05:47:44.320Z,0
2017-01-18T05:48:24.837Z,0
2017-01-18T05:49:05.310Z,0
2017-01-18T05:49:45.825Z,0
2017-01-18T05:50:26.289Z,0
2017-01-18T05:51:06.794Z,0
2017-01-18T05:53:20.010Z,0
2017-01-18T05:54:00.531Z,0
2017-01-18T05:54:41.066Z,0
2017-01-18T05:55:21.567Z,0
2017-01-18T05:56:02.066Z,0
2017-01-18T05:56:42.595Z,0
2017-01-18T05:57:23.044Z,0
2017-01-18T05:58:03.559Z,0
2017-01-18T05:58:44.084Z,0
2017-01-18T05:59:24.550Z,0
2017-01-18T06:00:05.066Z,0
2017-01-18T06:00:45.538Z,0
2017-01-18T06:01:26.031Z,0
2017-01-18T06:02:06.540Z,0
2017-01-18T06:02:47.055Z,0
2017-01-18T06:03:27.527Z,0
2017-01-18T06:04:08.019Z,0
2017-01-18T06:04:48.525Z,0
2017-01-18T06:05:29.025Z,0
2017-01-18T06:06:09.520Z,0
2017-01-18T06:06:49.983Z,0
2017-01-18T06:07:30.459Z,0
2017-01-18T06:08:10.959Z,0
2017-01-18T06:08:51.456Z,0
2017-01-18T06:09:31.930Z,0
2017-01-18T06:10:12.430Z,0
2017-01-18T06:10:52.919Z,0
2017-01-18T06:11:33.405Z,0
2017-01-18T06:12:13.917Z,0
2017-01-18T06:12:54.421Z,0
2017-01-18T06:13:34.905Z,0
2017-01-18T06:14:15.412Z,0
2017-01-18T06:14:55.903Z,0
2017-01-18T06:15:36.382Z,0
2017-01-18T06:16:16.905Z,0
2017-01-18T06:16:57.483Z,0
2017-01-18T06:17:37.877Z,0
2017-01-18T06:18:18.865Z,0
2017-01-18T06:18:59.292Z,0
2017-01-18T06:19:39.761Z,0
2017-01-18T06:20:20.250Z,0
2017-01-18T06:21:00.752Z,0
2017-01-18T06:21:41.196Z,0
2017-01-18T06:22:21.716Z,0
2017-01-18T06:23:02.211Z,0
2017-01-18T06:23:42.718Z,0
2017-01-18T06:24:23.236Z,0
2017-01-18T06:25:03.731Z,0
2017-01-18T06:25:44.240Z,0
2017-01-18T06:26:24.738Z,0
2017-01-18T06:27:05.233Z,0
2017-01-18T06:27:45.733Z,0
2017-01-18T06:28:26.240Z,0
2017-01-18T06:29:06.752Z,0
2017-01-18T06:29:47.234Z,0
2017-01-18T06:32:25.911Z,0
2017-01-18T06:33:06.419Z,0
2017-01-18T06:33:46.886Z,0
2017-01-18T06:34:27.367Z,0
2017-01-18T06:35:07.885Z,0
2017-01-18T06:35:48.392Z,0
2017-01-18T06:36:28.907Z,0
2017-01-18T06:37:09.397Z,0
2017-01-18T06:37:49.858Z,0
2017-01-18T06:38:30.364Z,0
2017-01-18T06:39:10.904Z,0
2017-01-18T06:39:51.424Z,0
2017-01-18T06:40:31.963Z,0
2017-01-18T06:41:12.424Z,0
2017-01-18T06:41:53.014Z,0
2017-01-18T06:42:33.460Z,0
2017-01-18T06:43:13.942Z,0
2017-01-18T06:43:54.470Z,0
2017-01-18T06:44:34.943Z,0
2017-01-18T06:45:15.473Z,0
2017-01-18T06:45:55.926Z,0
2017-01-18T06:46:36.404Z,0
2017-01-18T06:47:16.944Z,0
2017-01-18T06:47:57.395Z,0
2017-01-18T06:48:37.932Z,0
2017-01-18T06:49:18.439Z,0
2017-01-18T06:49:58.989Z,0
2017-01-18T06:50:39.446Z,0
2017-01-18T06:51:19.946Z,0
2017-01-18T06:52:00.466Z,0
2017-01-18T06:52:40.989Z,0
2017-01-18T06:53:22.010Z,0
2017-01-18T06:54:02.581Z,0
2017-01-18T06:54:42.976Z,0
2017-01-18T06:55:23.608Z,0
2017-01-18T06:56:07.581Z,0
2017-01-18T06:56:49.152Z,0
2017-01-18T06:57:29.824Z,0
2017-01-18T06:58:10.317Z,0
2017-01-18T06:58:51.237Z,0
2017-01-18T06:59:31.405Z,0
2017-01-18T07:00:11.866Z,0
2017-01-18T07:00:52.404Z,0
2017-01-18T07:01:33.730Z,0
2017-01-18T07:02:14.408Z,0
2017-01-18T07:02:54.941Z,0
2017-01-18T07:03:35.421Z,0
2017-01-18T07:04:15.921Z,0
2017-01-18T07:04:57.381Z,0
2017-01-18T07:05:39.580Z,0
2017-01-18T07:06:21.639Z,0
2017-01-18T07:07:02.716Z,0
2017-01-18T07:07:43.156Z,0
2017-01-18T07:08:23.596Z,0
2017-01-18T07:09:04.158Z,0
2017-01-18T07:09:44.609Z,0
2017-01-18T07:10:25.094Z,0
2017-01-18T07:11:05.578Z,0
2017-01-18T07:11:46.104Z,0
2017-01-18T07:12:27.331Z,0
2017-01-18T07:13:07.840Z,0
2017-01-18T07:13:48.325Z,0
2017-01-18T07:14:28.833Z,0
2017-01-18T07:15:09.305Z,0
2017-01-18T07:15:49.947Z,0
2017-01-18T07:16:30.281Z,0
2017-01-18T07:17:10.825Z,0
2017-01-18T07:17:51.302Z,0
2017-01-18T07:18:31.762Z,0
2017-01-18T07:19:12.273Z,0
2017-01-18T07:19:52.743Z,0
2017-01-18T07:20:33.274Z,0
2017-01-18T07:21:13.756Z,5
2017-01-18T07:21:54.244Z,5
2017-01-18T07:22:34.830Z,5
2017-01-18T07:23:15.281Z,5
2017-01-18T07:23:55.791Z,5
2017-01-18T07:24:36.391Z,5
2017-01-18T07:25:16.886Z,5
2017-01-18T07:25:57.396Z,5
2017-01-18T07:26:37.904Z,5
2017-01-18T07:27:18.441Z,5
2017-01-18T07:27:58.950Z,5
2017-01-18T07:28:39.355Z,5
2017-01-18T07:29:19.942Z,5
2017-01-18T07:30:00.552Z,5
2017-01-18T07:30:41.064Z,5
2017-01-18T07:31:21.587Z,5
2017-01-18T07:32:02.157Z,10
2017-01-18T07:32:42.715Z,10
2017-01-18T07:33:23.205Z,10
2017-01-18T07:34:03.689Z,10
2017-01-18T07:34:44.162Z,10
2017-01-18T07:35:24.792Z,10
2017-01-18T07:36:05.256Z,10
2017-01-18T07:36:45.712Z,10
2017-01-18T07:37:26.360Z,10
2017-01-18T07:38:06.796Z,10
2017-01-18T07:38:47.247Z,10
2017-01-18T07:39:27.771Z,10
2017-01-18T07:40:08.232Z,10
2017-01-18T07:40:48.974Z,10
2017-01-18T07:41:29.416Z,10
2017-01-18T07:42:09.899Z,10
2017-01-18T07:42:50.370Z,15
2017-01-18T07:43:30.850Z,15
2017-01-18T07:44:12.035Z,10
2017-01-18T07:44:53.713Z,15
2017-01-18T07:45:34.178Z,15
2017-01-18T07:46:14.676Z,15
2017-01-18T07:46:55.328Z,15
2017-01-18T07:47:35.816Z,15
2017-01-18T07:48:16.368Z,15
2017-01-18T07:48:56.833Z,15
2017-01-18T07:49:37.335Z,20
2017-01-18T07:50:17.873Z,20
2017-01-18T07:50:58.394Z,15
2017-01-18T07:51:38.887Z,15
2017-01-18T07:52:19.392Z,15
2017-01-18T07:52:59.887Z,20
2017-01-18T07:53:40.375Z,20
2017-01-18T07:54:20.841Z,20
2017-01-18T07:55:01.368Z,20
2017-01-18T07:55:41.826Z,20
2017-01-18T07:56:22.329Z,20
2017-01-18T07:57:02.908Z,20
2017-01-18T07:57:43.389Z,20
2017-01-18T07:58:23.936Z,20
2017-01-18T07:59:04.400Z,20
2017-01-18T07:59:44.931Z,20
2017-01-18T08:00:25.446Z,20
2017-01-18T08:01:05.941Z,20
2017-01-18T08:01:46.397Z,25
2017-01-18T08:02:26.879Z,20
2017-01-18T08:03:07.370Z,25
2017-01-18T08:03:47.940Z,25
2017-01-18T08:04:28.432Z,25
2017-01-18T08:05:08.922Z,25
2017-01-18T08:05:49.450Z,25
2017-01-18T08:06:29.928Z,25
2017-01-18T08:07:10.443Z,25
2017-01-18T08:07:50.932Z,25
2017-01-18T08:08:31.370Z,30
2017-01-18T08:09:11.847Z,30
2017-01-18T08:09:52.348Z,30
2017-01-18T08:10:32.828Z,30
2017-01-18T08:11:13.345Z,30
2017-01-18T08:11:53.804Z,30
2017-01-18T08:12:34.259Z,30
2017-01-18T08:13:14.756Z,30
2017-01-18T08:13:55.262Z,30
2017-01-18T08:14:35.751Z,30
2017-01-18T08:15:16.252Z,30
2017-01-18T08:15:56.690Z,30
2017-01-18T08:16:37.170Z,30
2017-01-18T08:17:17.654Z,35
2017-01-18T08:17:58.157Z,35
2017-01-18T08:18:38.623Z,35
2017-01-18T08:19:19.159Z,35
2017-01-18T08:19:59.698Z,35
2017-01-18T08:20:40.147Z,35
2017-01-18T08:21:20.658Z,35
2017-01-18T08:22:01.081Z,35
2017-01-18T08:22:41.602Z,40
2017-01-18T08:23:22.118Z,40
2017-01-18T08:24:02.591Z,40
2017-01-18T08:24:43.071Z,40
2017-01-18T08:25:24.014Z,40
2017-01-18T08:26:04.511Z,40
2017-01-18T08:26:45.073Z,35
2017-01-18T08:27:25.579Z,35
2017-01-18T08:28:06.128Z,35
2017-01-18T08:28:46.835Z,35
2017-01-18T08:29:28.071Z,35
2017-01-18T08:30:08.585Z,40
2017-01-18T08:30:49.052Z,40
2017-01-18T08:31:29.484Z,40
2017-01-18T08:32:09.969Z,40
2017-01-18T08:32:50.425Z,40
2017-01-18T08:33:30.954Z,40
2017-01-18T08:34:11.478Z,40
2017-01-18T08:34:51.952Z,45
2017-01-18T08:35:32.454Z,45
2017-01-18T08:36:12.919Z,45
2017-01-18T08:36:53.472Z,45
2017-01-18T08:37:34.073Z,45
2017-01-18T08:38:14.567Z,45
2017-01-18T08:38:55.096Z,45
2017-01-18T08:39:35.593Z,45
2017-01-18T08:40:16.438Z,45
2017-01-18T08:40:56.916Z,45
2017-01-18T08:41:37.520Z,50
2017-01-18T08:42:17.841Z,50
2017-01-18T08:42:58.334Z,45
2017-01-18T08:43:38.843Z,50
2017-01-18T08:44:19.291Z,50
2017-01-18T08:44:59.807Z,55
2017-01-18T08:45:40.293Z,55
2017-01-18T08:46:20.957Z,60
2017-01-18T08:47:01.645Z,60
2017-01-18T08:47:41.925Z,65
2017-01-18T08:48:22.529Z,65
2017-01-18T08:49:03.040Z,65
2017-01-18T08:49:43.525Z,65
2017-01-18T08:50:24.018Z,65
2017-01-18T08:51:04.507Z,60
2017-01-18T08:51:45.360Z,60
2017-01-18T08:52:25.805Z,60
2017-01-18T08:53:06.324Z,60
2017-01-18T08:53:46.824Z,60
2017-01-18T08:54:27.268Z,55
2017-01-18T08:55:07.982Z,55
2017-01-18T08:55:48.649Z,55
2017-01-18T08:56:29.106Z,55
2017-01-18T08:57:09.656Z,55
2017-01-18T08:57:50.103Z,55
2017-01-18T08:58:30.573Z,55
2017-01-18T08:59:11.090Z,55
2017-01-18T08:59:51.541Z,55
2017-01-18T09:00:32.085Z,55
2017-01-18T09:01:12.501Z,55
2017-01-18T09:01:53.059Z,55
2017-01-18T09:02:33.535Z,55
2017-01-18T09:03:14.080Z,55
2017-01-18T09:03:54.684Z,55
2017-01-18T09:04:35.736Z,55
2017-01-18T09:05:16.221Z,55
2017-01-18T09:05:56.903Z,55
2017-01-18T09:06:37.384Z,55
2017-01-18T09:07:17.924Z,55
2017-01-18T09:07:58.384Z,55
2017-01-18T09:08:38.924Z,55
2017-01-18T09:09:19.365Z,55
2017-01-18T09:09:59.898Z,55
2017-01-18T09:10:40.378Z,55
2017-01-18T09:11:21.349Z,55
2017-01-18T09:12:02.314Z,55
2017-01-18T09:12:43.352Z,55
2017-01-18T09:13:23.813Z,55
2017-01-18T09:14:04.360Z,55
2017-01-18T09:14:44.716Z,55
2017-01-18T09:15:25.207Z,55
2017-01-18T09:16:05.841Z,55
2017-01-18T09:16:46.895Z,55
2017-01-18T09:17:27.518Z,55
2017-01-18T09:18:08.162Z,60
2017-01-18T09:18:48.740Z,60
2017-01-18T09:19:29.209Z,55
2017-01-18T09:20:09.729Z,60
2017-01-18T09:20:50.441Z,60
2017-01-18T09:21:31.508Z,60
2017-01-18T09:22:12.071Z,60
2017-01-18T09:22:52.773Z,60
2017-01-18T09:23:33.273Z,60
2017-01-18T09:24:13.737Z,60
2017-01-18T09:24:54.303Z,60
2017-01-18T09:25:34.789Z,60
2017-01-18T09:26:15.359Z,60
2017-01-18T09:26:55.973Z,60
2017-01-18T09:27:36.456Z,60
2017-01-18T09:28:17.143Z,60
2017-01-18T09:28:57.634Z,60
2017-01-18T09:29:38.099Z,60
2017-01-18T09:30:18.837Z,60
2017-01-18T09:30:59.391Z,60
2017-01-18T09:31:39.796Z,60
2017-01-18T09:32:20.242Z,60
2017-01-18T09:33:02.879Z,60
2017-01-18T09:33:43.450Z,60
2017-01-18T09:34:23.885Z,60
2017-01-18T09:35:04.331Z,60
2017-01-18T09:35:44.878Z,60
2017-01-18T09:36:25.454Z,60
2017-01-18T09:37:05.947Z,60
2017-01-18T09:37:46.393Z,60
2017-01-18T09:38:26.926Z,60
2017-01-18T09:39:07.539Z,60
2017-01-18T09:39:48.149Z,60
2017-01-18T09:40:28.578Z,60
2017-01-18T09:41:09.161Z,60
2017-01-18T09:41:49.565Z,65
2017-01-18T09:42:30.158Z,65
2017-01-18T09:43:10.861Z,65
2017-01-18T09:43:51.393Z,65
2017-01-18T09:44:32.244Z,70
2017-01-18T09:45:12.819Z,70
2017-01-18T09:45:53.336Z,65
2017-01-18T09:46:34.107Z,70
2017-01-18T09:47:14.760Z,75
2017-01-18T09:47:55.291Z,70
2017-01-18T09:48:35.801Z,70
2017-01-18T09:49:16.819Z,70
2017-01-18T09:49:57.334Z,70
2017-01-18T09:50:37.861Z,70
2017-01-18T09:51:18.546Z,70
2017-01-18T09:51:59.089Z,70
2017-01-18T09:52:39.543Z,70
2017-01-18T09:53:20.031Z,70
2017-01-18T09:54:00.532Z,70
2017-01-18T09:54:41.022Z,70
2017-01-18T09:55:21.465Z,70
2017-01-18T09:56:01.929Z,65
2017-01-18T09:56:42.542Z,65
2017-01-18T09:57:22.998Z,65
2017-01-18T09:58:03.454Z,65
2017-01-18T09:58:44.187Z,65
2017-01-18T09:59:24.594Z,65
2017-01-18T10:00:05.116Z,65
2017-01-18T10:00:45.589Z,65
2017-01-18T10:01:26.080Z,65